Time;durP1;ratioP1;P1;durP2;ratioP2;P2;SDS_P1;SDS_P2;PMS_P1;PMS_P2;Temp;Humidity;BMP_temperature;BMP_pressure;BME280_temperature;BME280_humidity;BME280_pressure;Samples;Min_cycle;Max_cycle;Signal;HPM_P1;HPM_P2
2023/08/12 11:18:24;;;;;;;12.55;4.60;;;14.80;68.40;;;;;;3303254;26;20138;-79
2023/08/12 11:20:51;;;;;;;7.32;3.83;;;14.80;67.70;;;;;;5052909;28;20037;-78
2023/08/12 11:23:20;;;;;;;8.18;4.10;;;14.80;68.00;;;;;;5053004;28;20460;-73
2023/08/12 11:25:49;;;;;;;14.70;4.03;;;14.80;68.40;;;;;;5070563;28;20028;-74
2023/08/12 11:28:19;;;;;;;14.27;4.68;;;14.80;68.60;;;;;;5070222;28;20029;-76
2023/08/12 11:30:46;;;;;;;9.75;4.03;;;14.80;68.10;;;;;;5052303;28;20119;-76
2023/08/12 11:33:18;;;;;;;9.02;3.95;;;14.80;67.40;;;;;;5019400;28;20033;-75
2023/08/12 11:35:45;;;;;;;10.88;4.60;;;14.80;66.80;;;;;;5052661;28;20123;-73
2023/08/12 11:38:12;;;;;;;9.38;4.35;;;14.80;66.70;;;;;;5036358;28;20068;-74
2023/08/12 11:40:40;;;;;;;8.45;4.00;;;14.80;66.10;;;;;;5035866;28;20115;-78
2023/08/12 11:43:07;;;;;;;8.35;4.43;;;14.80;66.40;;;;;;5053019;28;20094;-78
2023/08/12 11:45:34;;;;;;;9.18;4.10;;;14.70;66.20;;;;;;5051815;28;20774;-78
2023/08/12 11:48:02;;;;;;;9.13;3.90;;;14.70;65.70;;;;;;5035983;28;20574;-75
2023/08/12 11:50:29;;;;;;;8.07;3.67;;;14.70;65.70;;;;;;5052410;28;20033;-75
2023/08/12 11:52:57;;;;;;;9.00;3.50;;;14.70;65.30;;;;;;5035944;28;20039;-71
2023/08/12 11:55:25;;;;;;;7.65;3.20;;;14.70;64.30;;;;;;5051716;28;20037;-71
2023/08/12 11:57:52;;;;;;;7.90;3.67;;;14.70;64.50;;;;;;5068631;28;20063;-71
2023/08/12 12:00:19;;;;;;;7.55;3.88;;;14.60;64.90;;;;;;5070140;28;20360;-72
2023/08/12 12:02:51;;;;;;;6.28;3.20;;;14.60;64.20;;;;;;5067662;28;20509;-72
2023/08/12 12:05:21;;;;;;;8.95;3.60;;;14.60;63.80;;;;;;5069465;28;20049;-71
2023/08/12 12:07:49;;;;;;;6.73;3.20;;;14.60;63.40;;;;;;5069990;28;20514;-72
2023/08/12 12:10:21;;;;;;;9.20;3.20;;;14.60;63.50;;;;;;5051860;28;20410;-71
2023/08/12 12:12:49;;;;;;;6.30;2.90;;;14.60;63.90;;;;;;5052011;28;20510;-72
2023/08/12 12:15:16;;;;;;;9.10;3.63;;;14.50;63.70;;;;;;5068750;28;20058;-72
2023/08/12 12:17:45;;;;;;;8.82;4.10;;;14.40;64.40;;;;;;5068803;28;20599;-76
2023/08/12 12:20:14;;;;;;;9.30;3.72;;;14.40;64.10;;;;;;5052269;28;20036;-74
2023/08/12 12:22:45;;;;;;;7.53;3.60;;;14.40;63.90;;;;;;5051635;28;20032;-76
2023/08/12 12:25:14;;;;;;;6.40;2.90;;;14.30;63.60;;;;;;5051454;28;20040;-74
2023/08/12 12:27:42;;;;;;;5.65;2.88;;;14.30;63.50;;;;;;5051404;28;20389;-75
2023/08/12 12:30:11;;;;;;;7.10;3.47;;;14.30;63.50;;;;;;5035564;28;20040;-74
2023/08/12 12:32:39;;;;;;;6.50;3.08;;;14.20;63.30;;;;;;5035272;28;20025;-76
2023/08/12 12:35:10;;;;;;;6.47;3.17;;;14.20;63.60;;;;;;5040687;28;20127;-72
2023/08/12 12:37:37;;;;;;;8.90;2.97;;;14.20;64.20;;;;;;5051400;28;20044;-74
2023/08/12 12:40:05;;;;;;;7.05;2.70;;;14.20;63.60;;;;;;5069485;28;20502;-72
2023/08/12 12:42:33;;;;;;;7.47;2.90;;;14.10;64.00;;;;;;5070678;28;20033;-71
2023/08/12 12:45:00;;;;;;;7.05;2.88;;;14.10;64.10;;;;;;5054088;28;20036;-72
2023/08/12 12:47:27;;;;;;;5.95;2.53;;;14.10;64.10;;;;;;5072308;28;20025;-71
2023/08/12 12:49:54;;;;;;;5.82;2.80;;;14.00;64.20;;;;;;5071185;28;20032;-72
2023/08/12 12:52:21;;;;;;;8.05;2.88;;;14.00;64.20;;;;;;5071562;28;20036;-72
2023/08/12 12:54:49;;;;;;;7.47;3.13;;;14.00;64.10;;;;;;5071496;28;20507;-71
2023/08/12 12:57:16;;;;;;;7.80;3.10;;;14.00;66.80;;;;;;5071526;28;20043;-72
2023/08/12 12:59:43;;;;;;;13.38;2.80;;;14.00;65.20;;;;;;5071077;28;20510;-72
2023/08/12 13:02:10;;;;;;;9.02;3.00;;;14.00;65.40;;;;;;5071473;28;20029;-71
2023/08/12 13:04:38;;;;;;;8.82;3.00;;;14.00;64.70;;;;;;5070808;28;20044;-72
2023/08/12 13:07:05;;;;;;;6.15;2.80;;;14.00;64.90;;;;;;5071657;28;20032;-72
2023/08/12 13:09:32;;;;;;;8.05;3.00;;;14.00;65.10;;;;;;5071792;28;20108;-72
2023/08/12 13:12:00;;;;;;;6.30;3.13;;;13.90;66.00;;;;;;5071665;28;20040;-72
2023/08/12 13:14:28;;;;;;;7.18;2.72;;;13.90;66.20;;;;;;5070392;28;20440;-72
2023/08/12 13:16:56;;;;;;;9.77;4.28;;;13.90;65.80;;;;;;5071545;28;20039;-71
2023/08/12 13:19:23;;;;;;;12.30;5.10;;;13.80;66.30;;;;;;5071192;28;20040;-72
2023/08/12 13:21:50;;;;;;;11.63;4.68;;;13.80;66.80;;;;;;5071856;28;20363;-72
2023/08/12 13:24:18;;;;;;;10.30;4.10;;;13.70;66.60;;;;;;5074514;28;20105;-72
2023/08/12 13:26:45;;;;;;;10.32;4.50;;;13.70;66.60;;;;;;5075651;28;20025;-72
2023/08/12 13:29:12;;;;;;;7.50;3.63;;;13.70;67.00;;;;;;5075279;28;20035;-72
2023/08/12 13:31:40;;;;;;;8.30;4.18;;;13.70;67.30;;;;;;5074395;28;20417;-71
2023/08/12 13:34:07;;;;;;;7.68;3.55;;;13.70;67.80;;;;;;5074724;28;20105;-72
2023/08/12 13:36:35;;;;;;;10.10;3.75;;;13.70;68.00;;;;;;5075007;28;20111;-72
2023/08/12 13:39:02;;;;;;;8.07;3.85;;;13.80;68.00;;;;;;5057272;28;20043;-72
2023/08/12 13:41:29;;;;;;;9.80;3.72;;;13.70;68.30;;;;;;5074317;28;20035;-72
2023/08/12 13:43:56;;;;;;;13.35;3.47;;;13.70;68.80;;;;;;5073318;28;20036;-72
2023/08/12 13:46:24;;;;;;;8.30;3.22;;;13.70;69.00;;;;;;5073931;28;20056;-71
2023/08/12 13:48:51;;;;;;;12.63;4.30;;;13.70;69.50;;;;;;5075020;28;20033;-72
2023/08/12 13:51:18;;;;;;;7.05;3.38;;;13.70;69.40;;;;;;5074085;28;20047;-72
2023/08/12 13:53:45;;;;;;;6.65;3.30;;;13.80;69.70;;;;;;5073920;28;20502;-72
2023/08/12 13:56:13;;;;;;;6.97;3.38;;;13.80;69.80;;;;;;5075316;28;20025;-72
2023/08/12 13:58:40;;;;;;;7.95;3.53;;;13.80;70.30;;;;;;5073732;28;20402;-72
2023/08/12 14:01:08;;;;;;;8.15;3.47;;;13.80;71.00;;;;;;5074978;28;20027;-72
2023/08/12 14:03:37;;;;;;;6.75;3.25;;;13.70;70.80;;;;;;5056495;28;20083;-72
2023/08/12 14:06:04;;;;;;;9.48;3.13;;;13.80;70.80;;;;;;5056209;28;20032;-72
2023/08/12 14:08:32;;;;;;;8.75;3.60;;;13.80;70.90;;;;;;5074609;28;20036;-72
2023/08/12 14:11:00;;;;;;;9.55;3.40;;;13.80;70.50;;;;;;5074519;28;20052;-72
2023/08/12 14:13:27;;;;;;;9.30;3.45;;;13.80;70.50;;;;;;5065472;28;20029;-71
2023/08/12 14:15:54;;;;;;;9.05;3.42;;;13.80;70.70;;;;;;5054243;28;20025;-72
2023/08/12 14:18:22;;;;;;;9.52;3.70;;;13.80;70.70;;;;;;5072956;28;20056;-72
2023/08/12 14:20:49;;;;;;;7.15;2.95;;;13.90;70.70;;;;;;5057026;28;20033;-72
2023/08/12 14:23:16;;;;;;;9.73;3.67;;;13.80;70.80;;;;;;5056345;28;20040;-72
2023/08/12 14:25:43;;;;;;;7.53;3.53;;;13.90;70.50;;;;;;5056245;28;20483;-72
2023/08/12 14:28:11;;;;;;;10.73;3.35;;;13.90;70.50;;;;;;5073326;28;20056;-71
2023/08/12 14:30:38;;;;;;;6.68;2.60;;;13.90;70.30;;;;;;5073517;28;20029;-72
2023/08/12 14:33:06;;;;;;;5.88;2.92;;;14.00;69.90;;;;;;5072404;28;20041;-72
2023/08/12 14:35:35;;;;;;;7.20;2.90;;;14.00;69.20;;;;;;5071676;28;20113;-72
2023/08/12 14:38:03;;;;;;;6.60;2.60;;;14.00;68.70;;;;;;5073153;28;20055;-71
2023/08/12 14:40:30;;;;;;;7.40;2.80;;;14.00;68.80;;;;;;5072989;28;20047;-72
2023/08/12 14:42:57;;;;;;;10.00;2.97;;;14.00;68.90;;;;;;5056152;28;20041;-72
2023/08/12 14:45:24;;;;;;;8.10;2.67;;;14.00;68.70;;;;;;5073200;28;20083;-72
2023/08/12 14:47:52;;;;;;;4.75;2.60;;;14.00;68.70;;;;;;5072903;28;20046;-72
2023/08/12 14:50:19;;;;;;;5.97;3.20;;;14.00;69.30;;;;;;5056079;28;20090;-72
2023/08/12 14:52:46;;;;;;;6.63;3.10;;;14.00;69.00;;;;;;5071869;28;20035;-72
2023/08/12 14:55:13;;;;;;;5.55;2.40;;;14.00;69.20;;;;;;5056115;28;20028;-71
2023/08/12 14:57:40;;;;;;;8.70;2.92;;;14.00;68.80;;;;;;5074124;28;20027;-72
2023/08/12 15:00:10;;;;;;;7.82;3.15;;;14.00;69.00;;;;;;5056534;28;20036;-72
2023/08/12 15:02:37;;;;;;;7.60;3.10;;;14.00;69.00;;;;;;5073090;28;20029;-72
2023/08/12 15:05:05;;;;;;;8.35;2.65;;;14.00;68.90;;;;;;5073720;28;20112;-72
2023/08/12 15:07:33;;;;;;;8.55;2.72;;;14.00;69.00;;;;;;5055338;28;20182;-72
2023/08/12 15:10:00;;;;;;;5.07;2.58;;;14.00;69.20;;;;;;5074076;28;20048;-72
2023/08/12 15:12:27;;;;;;;6.90;2.65;;;14.00;69.40;;;;;;5072323;28;20094;-72
2023/08/12 15:14:55;;;;;;;5.63;2.78;;;13.90;70.20;;;;;;5071801;28;20406;-71
2023/08/12 15:17:22;;;;;;;7.97;2.83;;;13.90;70.40;;;;;;5072294;28;20040;-72
2023/08/12 15:19:49;;;;;;;5.25;2.78;;;13.90;70.30;;;;;;5038922;28;20037;-72
2023/08/12 15:22:16;;;;;;;10.48;2.90;;;13.90;70.00;;;;;;5073582;28;20385;-72
2023/08/12 15:24:44;;;;;;;5.78;2.85;;;14.00;69.90;;;;;;5072852;28;20120;-71
2023/08/12 15:27:11;;;;;;;7.47;3.10;;;13.90;70.10;;;;;;5073586;28;20032;-71
2023/08/12 15:29:38;;;;;;;7.97;2.88;;;13.90;70.20;;;;;;5072347;28;20039;-72
2023/08/12 15:32:06;;;;;;;8.35;3.17;;;13.90;71.00;;;;;;5072333;28;20025;-72
2023/08/12 15:34:33;;;;;;;7.50;3.40;;;14.00;71.40;;;;;;5069583;28;20375;-72
2023/08/12 15:37:00;;;;;;;8.80;3.38;;;14.00;71.80;;;;;;5055852;28;20029;-71
2023/08/12 15:39:27;;;;;;;6.57;3.10;;;14.00;71.70;;;;;;5071495;28;20066;-72
2023/08/12 15:41:54;;;;;;;8.20;3.00;;;14.00;71.90;;;;;;5055344;28;20541;-72
2023/08/12 15:44:22;;;;;;;6.55;3.20;;;14.00;72.20;;;;;;5071376;28;20033;-72
2023/08/12 15:46:49;;;;;;;9.38;3.97;;;13.90;72.50;;;;;;5072974;28;20037;-71
2023/08/12 15:49:16;;;;;;;6.28;3.25;;;13.90;73.40;;;;;;5072742;28;20039;-71
2023/08/12 15:51:44;;;;;;;8.50;3.70;;;13.90;73.70;;;;;;5072746;28;20100;-72
2023/08/12 15:54:11;;;;;;;9.52;3.55;;;13.90;73.20;;;;;;5053681;28;20047;-72
2023/08/12 15:56:38;;;;;;;6.03;3.35;;;13.80;73.70;;;;;;5073092;28;20035;-72
2023/08/12 15:59:06;;;;;;;9.05;3.30;;;13.80;73.80;;;;;;5072878;28;20443;-72
2023/08/12 16:01:33;;;;;;;6.22;3.20;;;13.80;73.80;;;;;;5038451;28;20028;-72
2023/08/12 16:04:00;;;;;;;7.45;3.53;;;13.80;74.00;;;;;;5068176;28;20040;-72
2023/08/12 16:06:28;;;;;;;12.15;3.33;;;13.80;74.00;;;;;;5054961;28;20031;-72
2023/08/12 16:08:55;;;;;;;4.47;3.03;;;13.80;73.40;;;;;;5072912;28;20115;-71
2023/08/12 16:11:22;;;;;;;8.35;3.35;;;13.80;73.00;;;;;;5071487;28;20372;-72
2023/08/12 16:13:49;;;;;;;8.35;3.42;;;13.80;72.90;;;;;;5072139;28;20032;-72
2023/08/12 16:16:17;;;;;;;7.32;3.10;;;13.80;73.40;;;;;;5054890;28;20037;-72
2023/08/12 16:18:44;;;;;;;6.72;3.08;;;13.70;73.80;;;;;;5065888;28;20101;-72
2023/08/12 16:21:11;;;;;;;10.23;3.15;;;13.70;73.90;;;;;;5054588;28;20032;-72
2023/08/12 16:23:38;;;;;;;8.43;3.40;;;13.70;74.30;;;;;;5070863;28;20035;-72
2023/08/12 16:26:06;;;;;;;8.15;3.20;;;13.70;74.40;;;;;;5071525;28;20032;-72
2023/08/12 16:28:33;;;;;;;7.20;3.50;;;13.70;74.60;;;;;;5071730;28;20028;-72
2023/08/12 16:31:00;;;;;;;8.05;3.50;;;13.80;74.10;;;;;;5072974;28;20040;-72
2023/08/12 16:33:28;;;;;;;10.20;3.40;;;13.70;73.60;;;;;;5070587;28;20491;-72
2023/08/12 16:35:55;;;;;;;6.93;2.95;;;13.70;73.30;;;;;;5070712;28;20399;-72
2023/08/12 16:38:22;;;;;;;10.57;3.15;;;13.70;73.30;;;;;;5070982;28;20037;-72
2023/08/12 16:40:50;;;;;;;8.50;3.42;;;13.70;73.10;;;;;;5072994;28;20028;-72
2023/08/12 16:43:17;;;;;;;4.45;2.70;;;13.70;72.50;;;;;;5070622;28;20732;-72
2023/08/12 16:45:44;;;;;;;6.97;2.90;;;13.70;72.50;;;;;;5070903;28;20032;-72
2023/08/12 16:48:11;;;;;;;8.57;3.45;;;13.70;72.50;;;;;;5057798;28;20063;-71
2023/08/12 16:50:39;;;;;;;5.13;2.80;;;13.70;72.30;;;;;;5034815;28;20061;-72
2023/08/12 16:53:06;;;;;;;8.48;2.90;;;13.70;72.20;;;;;;5064034;28;20040;-72
2023/08/12 16:55:33;;;;;;;7.10;3.00;;;13.70;71.40;;;;;;5071200;28;20029;-71
2023/08/12 16:58:00;;;;;;;7.70;2.97;;;13.80;71.80;;;;;;5058596;28;20478;-71
2023/08/12 17:00:28;;;;;;;6.97;2.90;;;13.80;73.20;;;;;;5066748;28;20494;-71
2023/08/12 17:02:55;;;;;;;9.23;3.10;;;13.70;72.40;;;;;;5054621;28;20136;-71
2023/08/12 17:05:22;;;;;;;8.40;3.10;;;13.80;71.60;;;;;;5054415;28;20048;-71
2023/08/12 17:07:49;;;;;;;7.30;2.65;;;13.70;70.80;;;;;;5072077;28;20032;-71
2023/08/12 17:10:16;;;;;;;5.82;2.72;;;13.80;69.80;;;;;;5070332;28;20032;-71
2023/08/12 17:12:44;;;;;;;9.80;2.50;;;13.80;69.70;;;;;;5069882;28;20032;-72
2023/08/12 17:15:11;;;;;;;5.85;2.40;;;13.80;69.60;;;;;;5036371;28;20411;-72
2023/08/12 17:17:39;;;;;;;5.13;2.40;;;13.80;69.80;;;;;;5051732;28;20037;-72
2023/08/12 17:20:07;;;;;;;6.57;2.70;;;13.80;70.10;;;;;;5063891;28;20029;-71
2023/08/12 17:22:34;;;;;;;7.82;2.80;;;13.80;70.30;;;;;;5054090;28;20498;-71
2023/08/12 17:25:05;;;;;;;7.22;2.63;;;13.80;73.20;;;;;;5070899;28;20032;-72
2023/08/12 17:27:32;;;;;;;;;;;13.70;73.80;;;;;;5071398;28;20382;-72
2023/08/12 17:29:59;;;;;;;9.80;3.05;;;13.70;74.90;;;;;;5070408;28;20419;-72
2023/08/12 17:32:26;;;;;;;7.53;2.30;;;13.60;75.10;;;;;;5020729;28;20040;-72
2023/08/12 17:34:54;;;;;;;5.80;2.58;;;13.50;76.20;;;;;;5036998;28;20025;-72
2023/08/12 17:37:24;;;;;;;7.47;2.58;;;13.50;77.00;;;;;;5037122;28;20040;-72
2023/08/12 17:39:51;;;;;;;5.25;2.42;;;13.30;76.20;;;;;;5053087;28;20047;-72
2023/08/12 17:42:19;;;;;;;7.82;2.95;;;13.30;76.80;;;;;;5036735;28;20033;-72
2023/08/12 17:44:46;;;;;;;4.22;2.58;;;13.30;77.20;;;;;;5053972;28;20029;-72
2023/08/12 17:47:15;;;;;;;6.30;2.78;;;13.30;76.60;;;;;;5054123;28;20032;-72
2023/08/12 17:49:42;;;;;;;6.95;3.03;;;13.30;76.40;;;;;;5053131;28;20029;-72
2023/08/12 17:52:09;;;;;;;9.40;3.22;;;13.30;77.10;;;;;;5053827;28;20044;-72
2023/08/12 17:54:36;;;;;;;7.60;3.10;;;13.30;77.90;;;;;;5052963;28;20107;-72
2023/08/12 17:57:04;;;;;;;6.63;2.72;;;13.30;77.20;;;;;;5068255;28;20378;-72
2023/08/12 17:59:31;;;;;;;8.77;2.85;;;13.40;77.50;;;;;;5047523;28;20510;-72
2023/08/12 18:01:58;;;;;;;8.40;2.80;;;13.30;77.10;;;;;;5065690;28;20037;-72
2023/08/12 18:04:25;;;;;;;6.43;2.53;;;13.40;76.10;;;;;;5052803;28;20040;-72
2023/08/12 18:06:52;;;;;;;6.47;2.47;;;13.40;75.70;;;;;;5052800;28;20086;-72
2023/08/12 18:09:20;;;;;;;7.05;2.40;;;13.40;76.10;;;;;;5073096;28;20104;-72
2023/08/12 18:11:47;;;;;;;7.15;2.70;;;13.40;77.20;;;;;;5056990;28;20274;-72
2023/08/12 18:14:14;;;;;;;6.38;2.35;;;13.30;78.10;;;;;;5074777;28;20032;-72
2023/08/12 18:16:42;;;;;;;7.40;2.42;;;13.30;77.60;;;;;;5072457;28;20075;-72
2023/08/12 18:19:09;;;;;;;9.65;2.92;;;13.30;78.20;;;;;;5071044;28;20044;-72
2023/08/12 18:21:36;;;;;;;5.95;2.50;;;13.30;79.30;;;;;;5074377;28;20123;-72
2023/08/12 18:24:03;;;;;;;6.47;2.95;;;13.30;79.60;;;;;;5073734;28;20138;-72
2023/08/12 18:26:31;;;;;;;6.07;2.30;;;13.30;79.70;;;;;;5073358;28;20033;-72
2023/08/12 18:28:58;;;;;;;6.30;2.55;;;13.20;79.80;;;;;;5074698;28;20407;-72
2023/08/12 18:31:25;;;;;;;6.55;2.40;;;13.30;79.90;;;;;;5073246;28;20073;-72
2023/08/12 18:33:52;;;;;;;6.47;2.60;;;13.20;80.20;;;;;;5040239;28;20033;-72
2023/08/12 18:36:19;;;;;;;6.22;2.40;;;13.20;80.10;;;;;;5070802;28;20028;-72
2023/08/12 18:38:47;;;;;;;4.95;2.40;;;13.20;78.80;;;;;;5073994;28;20044;-72
2023/08/12 18:41:14;;;;;;;7.53;2.50;;;13.20;79.00;;;;;;5073328;28;20081;-72
2023/08/12 18:43:41;;;;;;;6.57;2.58;;;13.20;79.70;;;;;;5074468;28;20158;-72
2023/08/12 18:46:09;;;;;;;5.97;2.80;;;13.20;79.00;;;;;;5073749;28;20033;-72
2023/08/12 18:48:36;;;;;;;4.95;2.10;;;13.20;78.70;;;;;;5043082;28;20033;-72
2023/08/12 18:51:03;;;;;;;6.80;2.33;;;13.30;79.40;;;;;;5044934;28;20398;-72
2023/08/12 18:53:30;;;;;;;5.70;2.42;;;13.30;79.50;;;;;;5074235;28;20151;-72
2023/08/12 18:55:57;;;;;;;5.78;2.40;;;13.30;79.90;;;;;;5072900;28;20040;-72
2023/08/12 18:58:25;;;;;;;5.70;2.05;;;13.30;80.10;;;;;;5072713;28;20040;-72
2023/08/12 19:00:52;;;;;;;5.45;2.40;;;13.30;79.60;;;;;;5073861;28;20043;-72
2023/08/12 19:03:19;;;;;;;5.15;2.80;;;13.30;80.00;;;;;;5074148;28;20037;-72
2023/08/12 19:05:48;;;;;;;5.68;2.13;;;13.30;80.00;;;;;;5072934;28;20136;-72
2023/08/12 19:08:15;;;;;;;4.95;2.40;;;13.30;80.80;;;;;;5044528;28;20037;-72
2023/08/12 19:10:43;;;;;;;6.13;2.25;;;13.30;80.30;;;;;;5054048;28;20075;-72
2023/08/12 19:13:11;;;;;;;9.98;2.20;;;13.30;80.20;;;;;;5066402;28;20128;-71
2023/08/12 19:15:38;;;;;;;6.10;2.33;;;13.30;80.30;;;;;;5071299;28;20029;-72
2023/08/12 19:18:05;;;;;;;8.00;2.33;;;13.30;79.30;;;;;;5072586;28;20068;-72
2023/08/12 19:20:33;;;;;;;4.68;2.00;;;13.30;78.80;;;;;;5055210;28;20118;-72
2023/08/12 19:23:00;;;;;;;7.32;2.33;;;13.30;79.40;;;;;;5073204;28;20094;-72
2023/08/12 19:25:27;;;;;;;4.80;2.20;;;13.30;78.90;;;;;;5072785;28;20411;-72
2023/08/12 19:27:54;;;;;;;5.25;1.67;;;13.30;79.20;;;;;;5055899;28;20168;-72
2023/08/12 19:30:21;;;;;;;4.63;2.03;;;13.30;79.10;;;;;;5051676;28;20059;-72
2023/08/12 19:32:53;;;;;;;4.88;1.95;;;13.30;79.60;;;;;;5055317;28;20036;-72
2023/08/12 19:35:20;;;;;;;6.28;2.10;;;13.30;79.60;;;;;;5038775;28;20016;-72
2023/08/12 19:37:48;;;;;;;6.50;2.10;;;13.30;79.60;;;;;;5064161;28;20033;-75
2023/08/12 19:40:16;;;;;;;6.80;2.10;;;13.30;79.40;;;;;;5016851;28;20043;-72
2023/08/12 19:42:44;;;;;;;4.28;1.83;;;13.30;79.20;;;;;;5045353;28;20031;-74
2023/08/12 19:45:11;;;;;;;6.53;1.90;;;13.30;79.20;;;;;;5051604;28;20040;-72
2023/08/12 19:47:42;;;;;;;5.72;2.22;;;13.30;79.60;;;;;;5052012;28;20460;-72
2023/08/12 19:50:12;;;;;;;4.70;1.83;;;13.30;79.40;;;;;;5069050;28;20060;-73
2023/08/12 19:52:39;;;;;;;5.97;1.80;;;13.30;79.10;;;;;;5052203;28;20029;-73
2023/08/12 19:55:07;;;;;;;6.07;1.95;;;13.40;79.20;;;;;;5066862;28;20475;-73
2023/08/12 19:57:35;;;;;;;4.43;1.92;;;13.30;78.70;;;;;;5068852;28;20402;-73
2023/08/12 20:00:04;;;;;;;6.22;1.85;;;13.30;78.70;;;;;;5070495;28;20093;-72
2023/08/12 20:02:31;;;;;;;5.25;1.90;;;13.30;79.10;;;;;;5051001;28;20029;-73
2023/08/12 20:04:59;;;;;;;6.68;1.88;;;13.40;79.60;;;;;;5049457;28;20610;-74
2023/08/12 20:07:26;;;;;;;7.15;2.22;;;13.40;79.60;;;;;;5032115;28;20064;-73
2023/08/12 20:09:53;;;;;;;5.30;2.20;;;13.40;80.10;;;;;;5048845;28;20033;-72
2023/08/12 20:12:20;;;;;;;5.72;2.13;;;13.30;80.40;;;;;;5032055;28;20513;-72
2023/08/12 20:14:48;;;;;;;5.65;2.17;;;13.30;80.80;;;;;;5068975;28;20045;-73
2023/08/12 20:17:15;;;;;;;6.28;2.17;;;13.30;81.00;;;;;;5051992;28;20562;-72
2023/08/12 20:19:42;;;;;;;4.95;2.30;;;13.30;81.10;;;;;;5051633;28;20561;-72
2023/08/12 20:22:09;;;;;;;7.90;2.47;;;13.40;80.80;;;;;;5068887;28;20029;-72
2023/08/12 20:24:36;;;;;;;9.45;2.40;;;13.40;80.30;;;;;;5058481;28;20036;-73
2023/08/12 20:27:04;;;;;;;4.78;1.98;;;13.30;79.30;;;;;;5068577;28;20035;-72
2023/08/12 20:29:31;;;;;;;7.43;2.28;;;13.40;79.00;;;;;;5051703;28;20055;-71
2023/08/12 20:31:58;;;;;;;6.28;2.05;;;13.40;78.90;;;;;;5068609;28;20493;-71
2023/08/12 20:34:26;;;;;;;7.18;2.17;;;13.40;78.60;;;;;;5049000;28;20114;-73
2023/08/12 20:36:53;;;;;;;8.43;2.60;;;13.40;79.10;;;;;;5051824;28;20039;-73
2023/08/12 20:39:21;;;;;;;4.93;2.10;;;13.40;79.50;;;;;;5035067;28;20075;-73
2023/08/12 20:41:48;;;;;;;7.60;2.80;;;13.30;80.50;;;;;;5065740;28;20036;-71
2023/08/12 20:44:15;;;;;;;5.70;2.50;;;13.30;80.90;;;;;;5054185;28;20044;-72
2023/08/12 20:46:43;;;;;;;6.10;2.70;;;13.30;80.50;;;;;;5069323;28;20163;-71
2023/08/12 20:49:11;;;;;;;10.02;2.90;;;13.30;80.60;;;;;;5051323;28;20363;-72
2023/08/12 20:51:38;;;;;;;11.73;3.15;;;13.30;80.40;;;;;;5067495;28;20033;-71
2023/08/12 20:54:05;;;;;;;7.20;3.15;;;13.30;80.70;;;;;;5051604;28;20446;-71
2023/08/12 20:56:32;;;;;;;7.75;3.17;;;13.30;80.60;;;;;;5031296;28;20399;-72
2023/08/12 20:59:00;;;;;;;6.60;3.20;;;13.30;80.80;;;;;;5014727;28;20045;-72
2023/08/12 21:01:27;;;;;;;5.30;2.95;;;13.30;80.90;;;;;;5046636;28;20029;-73
2023/08/12 21:03:54;;;;;;;7.97;3.25;;;13.30;81.70;;;;;;5064594;28;20036;-73
2023/08/12 21:06:21;;;;;;;7.40;3.63;;;13.40;81.30;;;;;;5065313;28;20032;-74
2023/08/12 21:08:49;;;;;;;11.30;3.58;;;13.40;81.20;;;;;;5080941;28;20045;-69
2023/08/12 21:11:16;;;;;;;6.10;3.45;;;13.30;81.50;;;;;;5068954;28;20037;-71
2023/08/12 21:13:43;;;;;;;7.90;3.35;;;13.30;81.60;;;;;;5050775;28;20407;-73
2023/08/12 21:16:13;;;;;;;7.85;3.20;;;13.30;82.00;;;;;;5069323;28;20036;-73
2023/08/12 21:18:42;;;;;;;6.50;3.28;;;13.40;81.90;;;;;;5045437;28;20470;-73
2023/08/12 21:21:09;;;;;;;6.22;3.20;;;13.30;81.80;;;;;;5067858;28;20406;-73
2023/08/12 21:23:36;;;;;;;7.28;2.80;;;13.30;81.90;;;;;;5067303;28;20121;-74
2023/08/12 21:26:03;;;;;;;7.43;3.35;;;13.30;81.80;;;;;;5069040;28;20036;-73
2023/08/12 21:28:31;;;;;;;12.23;3.78;;;13.30;81.70;;;;;;5066794;28;20041;-72
2023/08/12 21:30:58;;;;;;;9.07;3.72;;;13.30;81.30;;;;;;5055195;28;20037;-72
2023/08/12 21:33:25;;;;;;;7.88;3.60;;;13.40;81.30;;;;;;5067853;28;20505;-72
2023/08/12 21:35:53;;;;;;;8.98;3.58;;;13.30;80.90;;;;;;5064320;28;20037;-72
2023/08/12 21:38:20;;;;;;;13.35;4.20;;;13.40;80.70;;;;;;5050075;28;20049;-72
2023/08/12 21:40:47;;;;;;;13.25;4.35;;;13.40;80.50;;;;;;5034822;28;20386;-72
2023/08/12 21:43:14;;;;;;;6.65;3.53;;;13.40;80.60;;;;;;5069702;28;20039;-72
2023/08/12 21:45:42;;;;;;;9.32;3.97;;;13.50;80.70;;;;;;5072143;28;20040;-74
2023/08/12 21:48:09;;;;;;;8.00;4.00;;;13.50;80.80;;;;;;5071927;28;20616;-73
2023/08/12 21:50:36;;;;;;;9.90;4.13;;;13.50;80.60;;;;;;5072103;28;20430;-73
2023/08/12 21:53:03;;;;;;;10.35;4.03;;;13.50;80.60;;;;;;5071529;28;20039;-72
2023/08/12 21:55:31;;;;;;;11.10;4.10;;;13.60;80.70;;;;;;5072402;28;20064;-73
2023/08/12 21:57:58;;;;;;;12.30;4.10;;;13.60;80.80;;;;;;5071479;28;20070;-73
2023/08/12 22:00:25;;;;;;;8.07;3.80;;;13.70;80.70;;;;;;5069224;28;20052;-73
2023/08/12 22:02:52;;;;;;;8.77;3.22;;;13.70;80.20;;;;;;5068095;28;20043;-73
2023/08/12 22:05:20;;;;;;;6.22;2.95;;;13.70;78.70;;;;;;5072168;28;20045;-74
2023/08/12 22:07:47;;;;;;;8.77;3.38;;;13.70;78.10;;;;;;5072489;28;20047;-74
2023/08/12 22:10:14;;;;;;;7.75;3.45;;;13.70;78.10;;;;;;5070548;28;20044;-73
2023/08/12 22:12:41;;;;;;;9.95;3.53;;;13.70;77.70;;;;;;5069979;28;20470;-72
2023/08/12 22:15:09;;;;;;;8.68;3.70;;;13.80;77.70;;;;;;5071821;28;20043;-71
2023/08/12 22:17:36;;;;;;;9.32;3.72;;;13.80;78.00;;;;;;5068385;28;20138;-71
2023/08/12 22:20:04;;;;;;;6.50;3.60;;;13.80;78.40;;;;;;5066716;28;20357;-71
2023/08/12 22:22:35;;;;;;;8.82;3.97;;;13.80;78.30;;;;;;5071369;28;20549;-71
2023/08/12 22:25:02;;;;;;;11.00;3.42;;;13.80;78.40;;;;;;5070417;28;20033;-71
2023/08/12 22:27:29;;;;;;;8.50;3.60;;;13.90;78.50;;;;;;5072045;28;20035;-70
2023/08/12 22:29:56;;;;;;;11.32;3.72;;;13.90;78.60;;;;;;5068965;28;20116;-69
2023/08/12 22:32:24;;;;;;;7.63;3.30;;;13.90;78.80;;;;;;5071855;28;20029;-69
2023/08/12 22:34:51;;;;;;;5.57;2.90;;;13.90;78.50;;;;;;5070376;28;20040;-69
2023/08/12 22:37:18;;;;;;;4.72;2.45;;;14.00;78.40;;;;;;5069138;28;20037;-69
2023/08/12 22:39:45;;;;;;;7.60;3.20;;;14.00;78.80;;;;;;5069906;28;20041;-68
2023/08/12 22:42:12;;;;;;;9.95;2.88;;;14.00;78.40;;;;;;5066884;28;20036;-69
2023/08/12 22:44:40;;;;;;;11.20;3.25;;;14.10;78.20;;;;;;5067079;28;20040;-70
2023/08/12 22:47:07;;;;;;;6.18;2.80;;;14.10;78.00;;;;;;5067455;28;20059;-71
2023/08/12 22:49:34;;;;;;;8.52;2.75;;;14.10;77.80;;;;;;5069651;28;20037;-71
2023/08/12 22:52:01;;;;;;;6.22;2.58;;;14.10;77.00;;;;;;5067407;28;20039;-71
2023/08/12 22:54:28;;;;;;;5.28;2.10;;;14.20;76.20;;;;;;5060648;28;20040;-71
2023/08/12 22:56:56;;;;;;;6.22;2.13;;;14.20;75.90;;;;;;5060710;28;20499;-71
2023/08/12 22:59:23;;;;;;;8.32;2.33;;;14.20;75.00;;;;;;5069612;28;20052;-71
2023/08/12 23:01:50;;;;;;;5.45;2.20;;;14.20;74.90;;;;;;5065496;28;20032;-71
2023/08/12 23:04:17;;;;;;;4.70;2.10;;;14.20;74.70;;;;;;5067114;28;20040;-71
2023/08/12 23:06:45;;;;;;;7.50;2.20;;;14.20;74.30;;;;;;5067111;28;20036;-72
2023/08/12 23:09:12;;;;;;;7.50;2.45;;;14.20;74.30;;;;;;5070614;28;20090;-71
2023/08/12 23:11:39;;;;;;;7.15;2.30;;;14.30;73.90;;;;;;5070061;28;20036;-71
2023/08/12 23:14:06;;;;;;;7.20;1.83;;;14.40;73.80;;;;;;5067689;28;20441;-72
2023/08/12 23:16:34;;;;;;;8.45;2.05;;;14.40;73.30;;;;;;5068043;28;20082;-71
2023/08/12 23:19:01;;;;;;;6.32;2.03;;;14.50;72.80;;;;;;5068923;28;20048;-72
2023/08/12 23:21:28;;;;;;;5.75;1.88;;;14.50;72.40;;;;;;5069598;28;20837;-72
2023/08/12 23:23:56;;;;;;;7.32;2.22;;;14.60;72.00;;;;;;5067745;28;20043;-73
2023/08/12 23:26:23;;;;;;;5.55;1.80;;;14.60;72.30;;;;;;5066057;28;20509;-69
2023/08/12 23:28:53;;;;;;;5.90;1.70;;;14.70;71.70;;;;;;5089853;28;20036;-69
2023/08/12 23:31:20;;;;;;;5.28;2.05;;;14.70;71.30;;;;;;5081568;28;20430;-69
2023/08/12 23:33:47;;;;;;;6.20;1.90;;;14.70;70.80;;;;;;5068589;28;20400;-70
2023/08/12 23:36:15;;;;;;;4.35;2.00;;;14.80;70.90;;;;;;5069282;28;20033;-70
2023/08/12 23:38:42;;;;;;;3.55;1.70;;;14.90;70.80;;;;;;5070367;28;20040;-70
2023/08/12 23:41:09;;;;;;;4.38;1.70;;;14.90;70.90;;;;;;5069263;28;20032;-73
2023/08/12 23:43:36;;;;;;;22.75;9.27;;;15.00;70.40;;;;;;5070539;28;20037;-71
2023/08/12 23:46:04;;;;;;;12.25;4.50;;;15.10;70.00;;;;;;5069800;28;20029;-69
2023/08/12 23:48:31;;;;;;;7.78;2.42;;;15.20;70.00;;;;;;5070609;28;20526;-69
2023/08/12 23:50:58;;;;;;;5.30;1.80;;;15.20;69.90;;;;;;5070409;28;20036;-70
2023/08/12 23:53:26;;;;;;;5.22;2.30;;;15.30;69.70;;;;;;5069300;28;20036;-70
2023/08/12 23:55:53;;;;;;;7.25;2.10;;;15.30;69.40;;;;;;5052898;28;20075;-70
2023/08/12 23:58:20;;;;;;;3.42;1.48;;;15.30;69.10;;;;;;5068631;28;20048;-71
